Time;durP1;ratioP1;P1;durP2;ratioP2;P2;SDS_P1;SDS_P2;PMS_P1;PMS_P2;Temp;Humidity;BMP_temperature;BMP_pressure;BME280_temperature;BME280_humidity;BME280_pressure;Samples;Min_cycle;Max_cycle;Signal;HPM_P1;HPM_P2
2024/01/03 00:01:32;;;;;;;16.13;3.75;;;11.80;99.90;;;;;;5039612;28;20029;-69
2024/01/03 00:03:58;;;;;;;13.57;3.00;;;11.90;99.90;;;;;;5052839;28;20021;-69
2024/01/03 00:06:32;;;;;;;18.60;4.13;;;11.80;99.90;;;;;;5059762;28;20470;-69
2024/01/03 00:08:58;;;;;;;20.27;3.15;;;11.80;99.90;;;;;;5058697;28;20356;-68
2024/01/03 00:11:27;;;;;;;16.23;3.53;;;11.80;99.90;;;;;;5053234;28;20524;-68
2024/01/03 00:14:05;;;;;;;15.07;3.90;;;11.90;99.90;;;;;;5033565;28;20031;-68
2024/01/03 00:16:33;;;;;;;14.18;2.70;;;11.90;99.90;;;;;;5061171;28;20033;-68
2024/01/03 00:18:59;;;;;;;14.45;2.83;;;11.90;99.90;;;;;;5039121;28;20020;-68
2024/01/03 00:21:26;;;;;;;12.98;2.70;;;11.90;99.90;;;;;;5054730;28;20098;-69
2024/01/03 00:24:07;;;;;;;12.63;2.78;;;11.90;99.90;;;;;;5043176;28;20685;-68
2024/01/03 00:26:34;;;;;;;15.70;3.30;;;11.90;99.90;;;;;;5041367;28;20489;-68
2024/01/03 00:29:01;;;;;;;16.70;3.05;;;11.90;99.90;;;;;;5052682;28;20258;-68
2024/01/03 00:31:37;;;;;;;16.08;3.60;;;11.90;99.90;;;;;;5056281;28;20454;-68
2024/01/03 00:34:24;;;;;;;15.65;2.75;;;11.90;99.90;;;;;;5060736;28;20092;-68
2024/01/03 00:36:54;;;;;;;21.02;3.60;;;11.90;99.90;;;;;;5031147;28;20501;-68
2024/01/03 00:39:40;;;;;;;15.15;3.03;;;11.90;99.90;;;;;;5052207;28;20078;-71
2024/01/03 00:42:05;;;;;;;18.55;3.67;;;11.90;99.90;;;;;;5058162;28;20058;-68
2024/01/03 00:44:31;;;;;;;15.77;2.72;;;11.90;99.90;;;;;;5052685;28;20470;-68
2024/01/03 00:46:57;;;;;;;18.17;2.60;;;11.90;99.90;;;;;;5054351;28;20074;-68
2024/01/03 00:49:24;;;;;;;10.02;2.33;;;11.90;99.90;;;;;;5060482;28;20024;-68
2024/01/03 00:51:50;;;;;;;13.38;3.17;;;11.90;99.90;;;;;;5038927;28;20060;-68
2024/01/03 00:54:18;;;;;;;15.60;2.78;;;11.90;99.90;;;;;;5052247;28;20025;-68
2024/01/03 00:56:45;;;;;;;12.90;3.55;;;11.90;99.90;;;;;;5057994;28;20059;-68
2024/01/03 00:59:12;;;;;;;13.70;4.03;;;11.90;99.90;;;;;;5060390;28;20037;-72
2024/01/03 01:01:38;;;;;;;21.55;6.55;;;11.90;99.90;;;;;;5053535;28;20028;-68
2024/01/03 01:04:04;;;;;;;19.73;5.28;;;11.90;99.90;;;;;;5050563;28;20056;-69
2024/01/03 01:06:30;;;;;;;20.60;5.45;;;11.80;99.90;;;;;;5059446;28;20024;-69
2024/01/03 01:08:56;;;;;;;16.27;3.90;;;11.80;99.90;;;;;;5039514;28;20054;-68
2024/01/03 01:11:21;;;;;;;17.45;3.72;;;11.80;99.90;;;;;;5051984;28;20027;-68
2024/01/03 01:13:47;;;;;;;12.38;2.85;;;11.80;99.90;;;;;;5052109;28;20029;-69
2024/01/03 01:16:12;;;;;;;20.23;4.07;;;11.80;99.90;;;;;;5037006;28;20017;-69
2024/01/03 01:18:38;;;;;;;21.40;4.00;;;11.80;99.90;;;;;;5060509;28;20025;-69
2024/01/03 01:21:04;;;;;;;16.55;3.17;;;11.80;99.90;;;;;;5055204;28;20021;-68
2024/01/03 01:23:30;;;;;;;19.17;3.92;;;11.80;99.90;;;;;;5052264;28;20055;-69
2024/01/03 01:25:55;;;;;;;16.75;3.17;;;11.80;99.90;;;;;;5058860;28;20343;-68
2024/01/03 01:28:21;;;;;;;14.80;3.20;;;11.80;99.90;;;;;;5061582;28;20024;-69
2024/01/03 01:30:47;;;;;;;16.10;3.10;;;11.80;99.90;;;;;;5055854;28;20048;-69
2024/01/03 01:33:12;;;;;;;18.02;3.08;;;11.80;99.90;;;;;;5059273;28;20108;-69
2024/01/03 01:35:38;;;;;;;20.75;3.33;;;11.80;99.90;;;;;;5063779;28;20398;-69
2024/01/03 01:38:06;;;;;;;25.75;4.72;;;11.80;99.90;;;;;;5058750;28;20812;-68
2024/01/03 01:40:32;;;;;;;19.30;3.97;;;11.80;99.90;;;;;;5055880;28;20433;-69
2024/01/03 01:42:57;;;;;;;19.65;3.67;;;11.80;99.90;;;;;;5062549;28;20482;-69
2024/01/03 01:45:23;;;;;;;21.83;4.40;;;11.80;99.90;;;;;;5063310;28;20036;-69
2024/01/03 01:47:50;;;;;;;21.25;3.33;;;11.70;99.90;;;;;;5055699;28;20393;-69
2024/01/03 01:50:17;;;;;;;18.23;4.07;;;11.80;99.90;;;;;;5058311;28;20065;-68
2024/01/03 01:52:43;;;;;;;24.27;3.85;;;11.80;99.90;;;;;;5063788;28;20532;-68
2024/01/03 01:55:10;;;;;;;19.85;4.40;;;11.70;99.90;;;;;;5059170;28;20107;-69
2024/01/03 01:57:38;;;;;;;20.38;3.75;;;11.80;99.90;;;;;;5055786;28;20024;-68
2024/01/03 02:00:05;;;;;;;23.77;4.28;;;11.70;99.90;;;;;;5061302;28;20048;-68
2024/01/03 02:02:33;;;;;;;24.05;4.20;;;11.70;99.90;;;;;;5063905;28;20029;-69
2024/01/03 02:04:59;;;;;;;26.88;4.72;;;11.70;99.90;;;;;;5051733;28;20070;-68
2024/01/03 02:07:25;;;;;;;19.48;3.50;;;11.70;99.90;;;;;;5056673;28;20632;-68
2024/01/03 02:09:52;;;;;;;22.63;4.07;;;11.70;99.90;;;;;;5063081;28;20025;-68
2024/01/03 02:12:28;;;;;;;17.80;3.45;;;11.70;99.90;;;;;;5053206;28;20079;-69
2024/01/03 02:14:54;;;;;;;23.33;4.43;;;11.70;99.90;;;;;;5063263;28;20025;-69
2024/01/03 02:17:20;;;;;;;21.88;4.82;;;11.70;99.90;;;;;;5037602;28;20027;-69
2024/01/03 02:19:46;;;;;;;23.05;3.70;;;11.70;99.90;;;;;;5056285;28;20110;-68
2024/01/03 02:22:12;;;;;;;21.05;4.43;;;11.70;99.90;;;;;;5063421;28;20771;-68
2024/01/03 02:24:37;;;;;;;25.67;4.88;;;11.70;99.90;;;;;;5041448;28;20464;-69
2024/01/03 02:27:03;;;;;;;24.80;4.38;;;11.70;99.90;;;;;;5054846;28;20445;-69
2024/01/03 02:29:28;;;;;;;23.75;4.25;;;11.60;99.90;;;;;;5060489;28;20082;-68
2024/01/03 02:31:54;;;;;;;24.88;4.20;;;11.60;99.90;;;;;;5062519;28;20053;-68
2024/01/03 02:34:20;;;;;;;28.10;4.82;;;11.60;99.90;;;;;;5055291;28;20387;-68
2024/01/03 02:36:51;;;;;;;22.05;4.65;;;11.60;99.90;;;;;;5056457;28;20024;-68
2024/01/03 02:39:16;;;;;;;;;;;11.60;99.90;;;;;;5061819;28;20075;-68
2024/01/03 02:41:42;;;;;;;22.52;4.05;;;11.60;99.90;;;;;;5059192;28;19916;-68
2024/01/03 02:44:07;;;;;;;27.92;4.55;;;11.60;99.90;;;;;;5052003;28;20112;-69
2024/01/03 02:46:33;;;;;;;23.90;5.00;;;11.60;99.90;;;;;;5057150;28;20093;-68
2024/01/03 02:48:59;;;;;;;26.60;4.90;;;11.60;99.90;;;;;;5054222;28;20409;-69
2024/01/03 02:51:25;;;;;;;24.83;4.32;;;11.60;99.90;;;;;;5061457;28;20045;-68
2024/01/03 02:53:50;;;;;;;21.35;4.38;;;11.60;99.90;;;;;;5061621;28;20537;-68
2024/01/03 02:56:16;;;;;;;25.88;4.40;;;11.60;99.90;;;;;;5054237;28;20493;-68
2024/01/03 02:58:42;;;;;;;20.38;4.03;;;11.60;99.90;;;;;;5057588;28;20497;-67
2024/01/03 03:01:07;;;;;;;24.42;4.25;;;11.60;99.90;;;;;;5062435;28;20090;-68
2024/01/03 03:03:33;;;;;;;19.70;4.20;;;11.50;99.90;;;;;;5057490;28;20043;-68
2024/01/03 03:05:59;;;;;;;23.95;4.15;;;11.60;99.90;;;;;;5063514;28;20480;-68
2024/01/03 03:08:24;;;;;;;21.30;4.65;;;11.50;99.90;;;;;;5055454;28;20024;-68
2024/01/03 03:10:50;;;;;;;23.75;4.53;;;11.60;99.90;;;;;;5055280;28;20229;-68
2024/01/03 03:13:16;;;;;;;23.23;3.92;;;11.50;99.90;;;;;;5035167;28;20477;-68
2024/01/03 03:15:42;;;;;;;20.65;4.03;;;11.50;99.90;;;;;;5042718;28;20021;-69
2024/01/03 03:18:08;;;;;;;26.13;4.65;;;11.50;99.90;;;;;;5043315;28;20444;-68
2024/01/03 03:20:34;;;;;;;22.73;4.43;;;11.50;99.90;;;;;;5035812;28;20039;-68
2024/01/03 03:23:00;;;;;;;24.10;3.72;;;11.50;99.90;;;;;;5057159;28;20021;-68
2024/01/03 03:25:27;;;;;;;22.30;3.92;;;11.50;99.90;;;;;;5061861;28;20025;-68
2024/01/03 03:27:53;;;;;;;30.00;5.15;;;11.50;99.90;;;;;;5057326;28;20024;-68
2024/01/03 03:30:18;;;;;;;27.55;4.55;;;11.50;99.90;;;;;;5054006;28;20032;-68
2024/01/03 03:32:45;;;;;;;20.95;3.95;;;11.40;99.90;;;;;;5060996;28;20017;-68
2024/01/03 03:35:11;;;;;;;22.98;4.22;;;11.40;99.90;;;;;;5061016;28;20484;-68
2024/01/03 03:37:37;;;;;;;25.27;4.53;;;11.30;99.90;;;;;;5053942;28;20035;-68
2024/01/03 03:40:03;;;;;;;20.33;4.00;;;11.30;99.90;;;;;;5055800;28;20061;-68
2024/01/03 03:42:29;;;;;;;28.35;5.13;;;11.30;99.90;;;;;;5061962;28;20047;-68
2024/01/03 03:44:54;;;;;;;21.60;4.10;;;11.30;99.90;;;;;;5056561;28;20021;-68
2024/01/03 03:47:20;;;;;;;26.75;5.20;;;11.30;99.90;;;;;;5053726;28;20021;-68
2024/01/03 03:49:45;;;;;;;26.70;4.43;;;11.30;99.90;;;;;;5060101;28;20632;-69
2024/01/03 03:52:11;;;;;;;24.42;4.47;;;11.30;99.90;;;;;;5060872;28;20492;-68
2024/01/03 03:54:37;;;;;;;23.52;3.92;;;11.30;99.90;;;;;;5035489;28;20482;-68
2024/01/03 03:57:02;;;;;;;24.20;4.20;;;11.40;99.90;;;;;;5038394;28;20033;-68
2024/01/03 03:59:28;;;;;;;22.50;4.22;;;11.30;99.90;;;;;;5044169;28;20024;-68
2024/01/03 04:01:54;;;;;;;22.92;4.35;;;11.40;99.90;;;;;;5056216;28;20032;-68
2024/01/03 04:04:20;;;;;;;23.85;4.80;;;11.30;99.90;;;;;;5053275;28;20375;-67
2024/01/03 04:06:46;;;;;;;18.40;3.35;;;11.40;99.90;;;;;;5053821;28;20020;-68
2024/01/03 04:09:12;;;;;;;28.48;4.80;;;11.40;99.90;;;;;;5036060;28;20502;-68
2024/01/03 04:11:42;;;;;;;26.15;4.53;;;11.40;99.90;;;;;;5062577;28;20240;-68
2024/01/03 04:14:08;;;;;;;28.15;5.45;;;11.40;99.90;;;;;;5041270;28;20498;-69
2024/01/03 04:16:35;;;;;;;20.33;4.03;;;11.40;99.90;;;;;;5042862;28;20615;-68
2024/01/03 04:19:01;;;;;;;21.33;4.47;;;11.40;99.90;;;;;;5053371;28;20012;-68
2024/01/03 04:21:28;;;;;;;21.38;4.50;;;11.30;99.90;;;;;;5054324;28;20028;-69
2024/01/03 04:23:54;;;;;;;23.20;4.15;;;11.30;99.90;;;;;;5061223;28;20508;-68
2024/01/03 04:26:20;;;;;;;26.48;5.47;;;11.30;99.90;;;;;;5057101;28;20031;-68
2024/01/03 04:28:46;;;;;;;31.77;4.95;;;11.30;99.90;;;;;;5052701;28;20029;-68
2024/01/03 04:31:11;;;;;;;26.75;4.78;;;11.30;99.90;;;;;;5040442;28;20031;-68
2024/01/03 04:33:37;;;;;;;29.98;4.50;;;11.30;99.90;;;;;;5047072;28;20029;-68
2024/01/03 04:36:03;;;;;;;29.17;4.93;;;11.40;99.90;;;;;;5059933;28;20024;-68
2024/01/03 04:38:28;;;;;;;28.55;4.78;;;11.30;99.90;;;;;;5046810;28;20175;-69
2024/01/03 04:40:54;;;;;;;20.73;4.55;;;11.40;99.90;;;;;;5060384;28;20494;-69
2024/01/03 04:43:20;;;;;;;31.08;6.35;;;11.40;99.90;;;;;;5057532;28;20037;-70
2024/01/03 04:45:49;;;;;;;29.02;7.45;;;11.40;99.90;;;;;;5052173;28;20028;-69
2024/01/03 04:48:16;;;;;;;34.35;9.75;;;11.40;99.90;;;;;;5039894;28;20025;-70
2024/01/03 04:50:41;;;;;;;28.33;9.15;;;11.40;99.90;;;;;;5060357;28;20051;-70
2024/01/03 04:53:07;;;;;;;38.60;10.82;;;11.50;99.90;;;;;;5053837;28;20474;-68
2024/01/03 04:55:33;;;;;;;28.73;8.88;;;11.50;99.90;;;;;;5053265;28;20078;-68
2024/01/03 04:57:59;;;;;;;24.75;9.25;;;11.50;99.90;;;;;;5060335;28;20476;-68
2024/01/03 05:00:25;;;;;;;28.73;8.05;;;11.50;99.90;;;;;;5057102;28;20029;-68
2024/01/03 05:02:51;;;;;;;26.45;8.30;;;11.50;99.90;;;;;;5050853;28;20016;-68
2024/01/03 05:05:17;;;;;;;35.40;7.97;;;11.50;99.90;;;;;;5062123;28;20021;-70
2024/01/03 05:07:43;;;;;;;27.35;7.35;;;11.50;99.90;;;;;;5052350;28;20040;-68
2024/01/03 05:10:09;;;;;;;23.10;6.38;;;11.40;99.90;;;;;;5059348;28;20013;-68
2024/01/03 05:12:38;;;;;;;23.05;5.60;;;11.40;99.90;;;;;;5050408;28;20104;-68
2024/01/03 05:15:05;;;;;;;27.85;5.55;;;11.40;99.90;;;;;;5060064;28;20134;-68
2024/01/03 05:17:31;;;;;;;23.70;5.13;;;11.40;99.90;;;;;;5054190;28;20028;-68
2024/01/03 05:19:57;;;;;;;19.88;4.65;;;11.40;99.90;;;;;;5034202;28;20106;-68
2024/01/03 05:22:23;;;;;;;19.30;4.00;;;11.30;99.90;;;;;;5060464;28;20017;-68
2024/01/03 05:24:48;;;;;;;20.38;4.55;;;11.20;99.90;;;;;;5058123;28;20028;-68
2024/01/03 05:27:14;;;;;;;24.35;4.40;;;11.20;99.90;;;;;;5051854;28;20017;-69
2024/01/03 05:29:40;;;;;;;23.52;4.00;;;11.10;99.90;;;;;;5038144;28;20051;-68
2024/01/03 05:32:05;;;;;;;21.45;4.07;;;11.00;99.90;;;;;;5059892;28;20028;-68
2024/01/03 05:34:31;;;;;;;20.23;3.65;;;11.00;99.90;;;;;;5036237;28;20035;-69
2024/01/03 05:36:57;;;;;;;17.85;3.20;;;10.90;99.90;;;;;;5051841;28;20025;-68
2024/01/03 05:39:23;;;;;;;29.27;4.88;;;10.80;99.90;;;;;;5060141;28;20083;-68
2024/01/03 05:41:49;;;;;;;19.10;3.60;;;10.80;99.90;;;;;;5057482;28;20169;-68
2024/01/03 05:44:15;;;;;;;26.38;4.82;;;10.70;99.90;;;;;;5048308;28;20021;-68
2024/01/03 05:46:42;;;;;;;28.95;4.03;;;10.70;99.90;;;;;;5055182;28;20039;-69
2024/01/03 05:49:08;;;;;;;23.23;4.28;;;10.60;99.90;;;;;;5052076;28;20016;-68
2024/01/03 05:51:33;;;;;;;24.23;4.25;;;10.60;99.90;;;;;;5057566;28;20401;-67
2024/01/03 05:54:00;;;;;;;25.88;4.07;;;10.60;99.90;;;;;;5041935;28;20036;-68
2024/01/03 05:56:27;;;;;;;21.40;4.22;;;10.60;99.90;;;;;;5033868;28;20052;-68
2024/01/03 05:58:53;;;;;;;20.30;4.10;;;10.60;99.90;;;;;;5053751;28;20111;-68
2024/01/03 06:01:18;;;;;;;19.42;4.05;;;10.60;99.90;;;;;;5059654;28;20434;-68
2024/01/03 06:03:44;;;;;;;20.20;3.50;;;10.60;99.90;;;;;;5056204;28;20100;-68
2024/01/03 06:06:10;;;;;;;14.48;3.33;;;10.60;99.90;;;;;;5059574;28;20048;-68
2024/01/03 06:08:35;;;;;;;14.35;3.00;;;10.60;99.90;;;;;;5054180;28;20017;-68
2024/01/03 06:11:01;;;;;;;18.48;3.47;;;10.60;99.90;;;;;;5051701;28;20025;-68
2024/01/03 06:13:28;;;;;;;12.93;3.08;;;10.60;99.90;;;;;;5052474;28;20025;-68
2024/01/03 06:15:54;;;;;;;15.57;2.50;;;10.60;99.90;;;;;;5060436;28;20478;-68
2024/01/03 06:18:21;;;;;;;11.38;2.70;;;10.60;99.90;;;;;;5063861;28;20047;-68
2024/01/03 06:20:47;;;;;;;11.02;2.47;;;10.60;99.90;;;;;;5055667;28;20123;-68
2024/01/03 06:23:13;;;;;;;15.93;2.72;;;10.60;99.90;;;;;;5056632;28;20021;-68
2024/01/03 06:25:39;;;;;;;11.05;2.38;;;10.70;99.90;;;;;;5063060;28;20021;-68
2024/01/03 06:28:05;;;;;;;9.10;2.13;;;10.70;99.90;;;;;;5060335;28;20465;-69
2024/01/03 06:30:30;;;;;;;12.40;2.00;;;10.70;99.90;;;;;;5054836;28;20115;-68
2024/01/03 06:32:56;;;;;;;16.35;2.40;;;10.70;99.90;;;;;;5060438;28;20025;-68
2024/01/03 06:35:22;;;;;;;12.20;2.45;;;10.70;99.90;;;;;;5063040;28;20618;-68
2024/01/03 06:37:47;;;;;;;11.93;2.67;;;10.70;99.90;;;;;;5055977;28;20052;-68
2024/01/03 06:40:14;;;;;;;10.07;1.95;;;10.70;99.90;;;;;;5055938;28;20466;-68
2024/01/03 06:42:40;;;;;;;11.40;2.40;;;10.70;99.90;;;;;;5063143;28;20025;-68
2024/01/03 06:45:06;;;;;;;11.70;1.92;;;10.70;99.90;;;;;;5060168;28;20112;-68
2024/01/03 06:47:32;;;;;;;8.75;1.70;;;10.60;99.90;;;;;;5054465;28;20052;-68
2024/01/03 06:49:58;;;;;;;11.23;1.95;;;10.60;99.90;;;;;;5041852;28;20453;-70
2024/01/03 06:52:23;;;;;;;8.68;1.88;;;10.60;99.90;;;;;;5062683;28;20035;-68
2024/01/03 06:54:49;;;;;;;9.27;1.80;;;10.70;99.90;;;;;;5055746;28;20025;-68
2024/01/03 06:57:15;;;;;;;10.57;2.60;;;10.60;99.90;;;;;;5039270;28;20024;-68
2024/01/03 06:59:41;;;;;;;7.13;1.45;;;10.60;99.90;;;;;;5052265;28;20090;-68
2024/01/03 07:02:07;;;;;;;5.07;1.17;;;10.60;99.90;;;;;;5057921;28;20470;-68
2024/01/03 07:04:33;;;;;;;6.88;0.98;;;10.60;99.90;;;;;;5062133;28;20072;-69
2024/01/03 07:06:59;;;;;;;5.82;1.85;;;10.60;99.90;;;;;;5059146;28;20044;-68
2024/01/03 07:09:24;;;;;;;4.60;1.00;;;10.60;99.90;;;;;;5054083;28;20565;-68
2024/01/03 07:11:50;;;;;;;6.55;1.30;;;10.50;99.90;;;;;;5038534;28;20390;-70
2024/01/03 07:14:16;;;;;;;6.82;1.48;;;10.50;99.90;;;;;;5039055;28;20026;-68
2024/01/03 07:16:41;;;;;;;3.47;0.70;;;10.50;99.90;;;;;;5036948;28;20022;-68
2024/01/03 07:19:07;;;;;;;5.50;1.05;;;10.40;99.90;;;;;;5035453;28;20494;-68
2024/01/03 07:21:33;;;;;;;5.22;1.00;;;10.40;99.90;;;;;;5029888;28;20116;-68
2024/01/03 07:23:59;;;;;;;4.85;0.77;;;10.40;99.90;;;;;;5033405;28;20039;-68
2024/01/03 07:26:24;;;;;;;4.63;0.85;;;10.30;99.90;;;;;;5027477;28;20407;-68
2024/01/03 07:28:50;;;;;;;2.78;0.90;;;10.30;99.90;;;;;;5025055;28;20441;-68
2024/01/03 07:31:16;;;;;;;3.33;0.70;;;10.30;99.90;;;;;;5028526;28;20025;-69
2024/01/03 07:33:42;;;;;;;4.25;0.82;;;10.20;99.90;;;;;;5049063;28;20032;-69
2024/01/03 07:36:08;;;;;;;3.90;0.90;;;10.10;99.90;;;;;;5059365;28;20074;-69
2024/01/03 07:38:33;;;;;;;6.72;1.05;;;10.00;99.90;;;;;;5037264;28;20052;-69
2024/01/03 07:41:00;;;;;;;3.60;0.90;;;10.00;99.90;;;;;;5039894;28;21041;-69
2024/01/03 07:43:29;;;;;;;4.15;1.00;;;9.90;99.90;;;;;;5052550;28;20042;-69
2024/01/03 07:45:55;;;;;;;2.15;0.60;;;9.90;99.90;;;;;;5039710;28;20020;-69
2024/01/03 07:48:21;;;;;;;4.93;1.10;;;9.90;99.90;;;;;;5040748;28;20018;-69
2024/01/03 07:50:47;;;;;;;2.80;0.60;;;9.80;99.90;;;;;;5032712;28;20545;-69
2024/01/03 07:53:13;;;;;;;2.08;0.60;;;9.80;99.90;;;;;;5050705;28;20035;-70
2024/01/03 07:55:38;;;;;;;5.13;0.70;;;9.80;99.90;;;;;;5050894;28;20462;-69
2024/01/03 07:58:04;;;;;;;3.30;0.60;;;9.80;99.90;;;;;;5047417;28;20033;-69
2024/01/03 08:00:30;;;;;;;3.08;0.70;;;9.80;99.90;;;;;;5014459;28;20075;-69
2024/01/03 08:02:56;;;;;;;4.32;0.95;;;9.80;99.90;;;;;;5040864;28;20013;-69
2024/01/03 08:05:22;;;;;;;6.40;0.77;;;9.70;99.90;;;;;;5041272;28;20017;-69
2024/01/03 08:07:48;;;;;;;2.03;0.40;;;9.70;99.90;;;;;;5041468;28;20040;-69
2024/01/03 08:10:14;;;;;;;4.15;0.65;;;9.70;99.90;;;;;;5032415;28;20029;-70
2024/01/03 08:12:40;;;;;;;2.55;0.65;;;9.70;99.90;;;;;;5030681;28;20031;-69
2024/01/03 08:15:06;;;;;;;5.13;0.90;;;9.70;99.90;;;;;;5032944;28;20017;-69
2024/01/03 08:17:32;;;;;;;4.18;0.93;;;9.70;99.90;;;;;;5055643;28;20375;-69
2024/01/03 08:19:57;;;;;;;4.72;0.80;;;9.70;99.90;;;;;;5041297;28;20175;-70
2024/01/03 08:22:23;;;;;;;8.95;1.63;;;9.80;99.90;;;;;;5050328;28;20466;-69
2024/01/03 08:24:49;;;;;;;5.40;1.10;;;9.80;99.90;;;;;;5036052;28;20030;-69
2024/01/03 08:27:14;;;;;;;4.85;1.10;;;9.80;99.90;;;;;;5041623;28;20020;-69
2024/01/03 08:29:40;;;;;;;4.40;1.42;;;9.80;99.90;;;;;;5019350;28;20025;-69
2024/01/03 08:32:06;;;;;;;12.02;2.40;;;9.80;99.90;;;;;;5037115;28;20029;-69
2024/01/03 08:34:39;;;;;;;10.82;1.77;;;9.80;99.90;;;;;;5032006;28;20033;-70
2024/01/03 08:37:05;;;;;;;8.25;1.70;;;9.90;99.90;;;;;;5038726;28;20024;-69
2024/01/03 08:39:30;;;;;;;10.60;2.03;;;9.90;99.90;;;;;;5014488;28;20103;-70
2024/01/03 08:41:56;;;;;;;7.93;2.17;;;9.90;99.90;;;;;;5030464;28;20025;-70
2024/01/03 08:44:22;;;;;;;11.27;2.47;;;9.90;99.90;;;;;;5036300;28;20038;-70
2024/01/03 08:46:47;;;;;;;8.00;2.03;;;9.90;99.90;;;;;;5055274;28;20060;-70
2024/01/03 08:49:13;;;;;;;8.13;1.75;;;9.90;99.90;;;;;;5052773;28;20077;-69
2024/01/03 08:51:39;;;;;;;9.73;2.42;;;10.00;99.90;;;;;;5057584;28;20036;-69
2024/01/03 08:54:05;;;;;;;6.45;2.50;;;10.00;99.90;;;;;;5037224;28;20618;-70
2024/01/03 08:56:31;;;;;;;9.15;2.33;;;10.00;99.90;;;;;;5052689;28;20055;-70
2024/01/03 08:58:57;;;;;;;4.85;1.90;;;10.00;99.90;;;;;;5053416;28;20021;-70
2024/01/03 09:01:24;;;;;;;7.13;2.10;;;10.00;99.90;;;;;;5059762;28;20024;-69
2024/01/03 09:03:50;;;;;;;8.68;2.38;;;10.00;99.90;;;;;;5035662;28;20028;-69
2024/01/03 09:06:21;;;;;;;7.93;2.40;;;10.00;99.90;;;;;;5035283;28;20041;-69
2024/01/03 09:08:50;;;;;;;10.02;2.05;;;10.10;99.90;;;;;;5056359;28;20032;-69
2024/01/03 09:11:18;;;;;;;7.28;2.20;;;10.10;99.90;;;;;;5060074;28;20055;-69
2024/01/03 09:13:48;;;;;;;7.60;2.30;;;10.10;99.90;;;;;;5061526;28;20021;-70
2024/01/03 09:16:17;;;;;;;13.68;2.90;;;10.10;99.90;;;;;;5054410;28;20033;-69
2024/01/03 09:18:42;;;;;;;11.52;3.17;;;10.10;99.90;;;;;;5042248;28;20021;-70
2024/01/03 09:21:09;;;;;;;9.77;3.13;;;10.10;99.90;;;;;;5055602;28;20478;-69
2024/01/03 09:23:34;;;;;;;10.40;3.03;;;10.10;99.90;;;;;;5034255;28;20033;-70
2024/01/03 09:26:04;;;;;;;8.55;2.78;;;10.10;99.90;;;;;;5058102;28;20539;-70
2024/01/03 09:28:29;;;;;;;8.95;2.72;;;10.10;99.90;;;;;;5031766;28;20065;-69
2024/01/03 09:30:55;;;;;;;11.52;3.40;;;10.10;99.90;;;;;;5052703;28;20554;-70
2024/01/03 09:33:20;;;;;;;12.88;3.50;;;10.10;99.90;;;;;;5030606;28;20033;-70
2024/01/03 09:35:46;;;;;;;13.90;3.35;;;10.10;99.90;;;;;;5038177;28;20107;-69
2024/01/03 09:38:13;;;;;;;13.35;2.78;;;10.10;99.90;;;;;;5036081;28;20476;-69
2024/01/03 09:40:40;;;;;;;15.23;3.72;;;10.10;99.90;;;;;;5049360;28;20475;-70
2024/01/03 09:43:06;;;;;;;12.25;2.95;;;10.10;99.90;;;;;;5051542;28;20017;-69
2024/01/03 09:45:32;;;;;;;8.85;3.03;;;10.10;99.90;;;;;;5029680;28;20597;-69
2024/01/03 09:47:58;;;;;;;13.05;3.78;;;10.10;99.90;;;;;;5053372;28;20021;-69
2024/01/03 09:50:24;;;;;;;17.23;3.10;;;10.10;99.90;;;;;;5041698;28;20106;-70
2024/01/03 09:52:49;;;;;;;14.68;3.08;;;10.10;99.90;;;;;;5040733;28;20494;-70
2024/01/03 09:55:18;;;;;;;15.07;3.60;;;10.00;99.90;;;;;;5059287;28;20033;-70
2024/01/03 09:57:45;;;;;;;11.48;3.08;;;10.10;99.90;;;;;;5050353;28;20024;-69
2024/01/03 10:00:11;;;;;;;16.05;2.95;;;10.00;99.90;;;;;;5036862;28;20029;-69
2024/01/03 10:02:37;;;;;;;10.02;2.53;;;10.10;99.90;;;;;;5041434;28;20561;-69
2024/01/03 10:05:04;;;;;;;13.90;3.15;;;10.10;99.90;;;;;;5059119;28;20017;-70
2024/01/03 10:07:35;;;;;;;15.70;3.85;;;10.00;99.90;;;;;;5040663;28;20025;-69
2024/01/03 10:10:02;;;;;;;18.00;3.45;;;10.00;99.90;;;;;;5022920;28;20116;-69
2024/01/03 10:12:33;;;;;;;20.98;3.20;;;10.00;99.90;;;;;;5042352;28;20036;-69
2024/01/03 10:15:17;;;;;;;26.42;3.40;;;10.00;99.90;;;;;;5041256;28;20033;-70
2024/01/03 10:17:45;;;;;;;26.20;3.90;;;10.00;99.90;;;;;;5036528;28;20029;-69
2024/01/03 10:20:28;;;;;;;25.73;4.15;;;10.00;99.90;;;;;;5019282;28;20105;-69
2024/01/03 10:23:06;;;;;;;20.35;3.47;;;10.10;99.90;;;;;;5039899;28;20048;-69
2024/01/03 10:25:32;;;;;;;23.30;4.32;;;10.10;99.90;;;;;;5038920;28;20131;-69
2024/01/03 10:28:02;;;;;;;20.67;3.42;;;10.10;99.90;;;;;;5049179;28;20224;-69
2024/01/03 10:30:29;;;;;;;21.95;4.03;;;10.20;99.90;;;;;;5038504;28;20125;-69
2024/01/03 10:33:01;;;;;;;23.25;3.80;;;10.20;99.90;;;;;;5014584;28;20022;-70
2024/01/03 10:35:32;;;;;;;24.90;5.15;;;10.30;99.90;;;;;;5039768;28;20043;-70
2024/01/03 10:38:01;;;;;;;20.08;3.58;;;10.30;99.90;;;;;;5045968;28;20022;-70
2024/01/03 10:40:29;;;;;;;27.58;4.18;;;10.30;99.90;;;;;;5034394;28;20029;-70
2024/01/03 10:42:56;;;;;;;24.52;3.88;;;10.40;99.90;;;;;;5029308;28;20022;-70
2024/01/03 10:45:22;;;;;;;22.48;4.68;;;10.50;99.90;;;;;;5054162;28;20040;-72
2024/01/03 10:47:48;;;;;;;19.88;3.70;;;10.50;99.90;;;;;;5062380;28;20020;-70
2024/01/03 10:50:14;;;;;;;25.85;3.60;;;10.50;99.90;;;;;;5060619;28;20025;-70
2024/01/03 10:52:44;;;;;;;23.13;4.88;;;10.50;99.90;;;;;;5053616;28;20019;-70
2024/01/03 10:55:17;;;;;;;26.77;4.40;;;10.50;99.90;;;;;;5043924;28;20036;-70
2024/01/03 10:57:50;;;;;;;23.83;4.85;;;10.50;99.90;;;;;;5050152;28;20030;-68
2024/01/03 11:00:33;;;;;;;21.92;3.70;;;10.50;99.90;;;;;;5014364;28;20028;-68
2024/01/03 11:03:27;;;;;;;24.10;4.13;;;10.60;99.90;;;;;;5033486;28;20112;-68
2024/01/03 11:05:59;;;;;;;24.83;3.83;;;10.60;99.90;;;;;;5034446;28;20025;-68
2024/01/03 11:08:49;;;;;;;27.05;4.75;;;10.60;99.90;;;;;;5035329;28;20029;-70
2024/01/03 11:11:36;;;;;;;25.20;4.18;;;10.60;99.90;;;;;;5032066;28;20045;-69
2024/01/03 11:14:21;;;;;;;24.13;4.03;;;10.70;99.90;;;;;;5029842;28;20091;-69
2024/01/03 11:16:47;;;;;;;26.98;4.70;;;10.70;99.90;;;;;;5048515;28;20487;-70
2024/01/03 11:19:13;;;;;;;22.27;3.78;;;10.70;99.90;;;;;;5054200;28;20020;-70
2024/01/03 11:21:41;;;;;;;24.80;3.95;;;10.70;99.90;;;;;;5022239;28;20048;-69
2024/01/03 11:24:19;;;;;;;30.25;4.82;;;10.80;99.90;;;;;;5044199;28;20021;-70
2024/01/03 11:26:57;;;;;;;23.30;4.55;;;10.90;99.90;;;;;;5041343;28;20025;-70
2024/01/03 11:29:45;;;;;;;24.13;4.05;;;11.00;99.90;;;;;;5039831;28;20024;-70
2024/01/03 11:32:15;;;;;;;21.17;4.45;;;11.10;99.90;;;;;;5040537;28;21395;-70
2024/01/03 11:34:48;;;;;;;20.60;4.22;;;11.10;99.90;;;;;;5025379;28;20025;-70
2024/01/03 11:37:17;;;;;;;23.85;4.80;;;11.20;99.90;;;;;;5033276;28;20024;-70
2024/01/03 11:39:46;;;;;;;24.85;4.75;;;11.20;99.90;;;;;;5036671;28;20060;-70
2024/01/03 11:42:19;;;;;;;23.55;4.03;;;11.10;99.90;;;;;;5036256;28;20166;-70
2024/01/03 11:44:45;;;;;;;26.48;4.85;;;11.10;99.90;;;;;;5038192;28;20021;-69
2024/01/03 11:47:12;;;;;;;22.83;3.88;;;11.20;99.90;;;;;;5053766;28;20025;-73
2024/01/03 11:49:37;;;;;;;27.17;4.53;;;11.10;99.90;;;;;;5051756;28;20021;-70
2024/01/03 11:52:03;;;;;;;27.20;4.97;;;11.20;99.90;;;;;;5053496;28;20031;-70
2024/01/03 11:54:32;;;;;;;25.25;4.90;;;11.20;99.90;;;;;;5060007;28;20057;-70
2024/01/03 11:56:58;;;;;;;28.23;4.93;;;11.20;99.90;;;;;;5056690;28;20120;-70
2024/01/03 11:59:24;;;;;;;23.77;3.85;;;11.20;99.90;;;;;;5034981;28;20115;-70
2024/01/03 12:01:57;;;;;;;30.60;4.70;;;11.20;99.90;;;;;;5058337;28;20059;-70
2024/01/03 12:04:24;;;;;;;25.55;4.65;;;11.20;99.90;;;;;;5059643;28;20013;-70
2024/01/03 12:06:50;;;;;;;28.98;4.15;;;11.20;99.90;;;;;;5059260;28;20025;-69
2024/01/03 12:09:16;;;;;;;30.65;5.63;;;11.20;99.90;;;;;;5042848;28;20020;-69
2024/01/03 12:11:42;;;;;;;28.45;4.88;;;11.20;99.90;;;;;;5032286;28;20029;-68
2024/01/03 12:14:07;;;;;;;25.27;4.53;;;11.30;99.90;;;;;;5037251;28;20047;-70
2024/01/03 12:16:48;;;;;;;29.83;4.55;;;11.30;99.90;;;;;;5035366;28;20029;-70
2024/01/03 12:19:26;;;;;;;25.17;5.00;;;11.30;99.90;;;;;;5050385;28;20469;-69
2024/01/03 12:21:56;;;;;;;23.50;4.47;;;11.40;99.90;;;;;;5044966;28;20037;-69
2024/01/03 12:24:22;;;;;;;20.08;4.57;;;11.40;99.90;;;;;;5048709;28;20024;-69
2024/01/03 12:26:51;;;;;;;21.50;4.50;;;11.60;99.90;;;;;;5037591;28;20025;-69
2024/01/03 12:29:18;;;;;;;17.52;3.60;;;11.60;99.90;;;;;;5041482;28;20014;-69
2024/01/03 12:31:44;;;;;;;15.38;4.13;;;11.80;99.90;;;;;;5032298;28;20056;-70
2024/01/03 12:34:10;;;;;;;19.85;4.18;;;11.90;99.90;;;;;;5040421;28;20059;-70
2024/01/03 12:36:35;;;;;;;16.55;3.35;;;12.00;99.90;;;;;;5037835;28;20031;-70
2024/01/03 12:39:01;;;;;;;11.93;2.97;;;12.00;99.90;;;;;;5037070;28;20053;-71
2024/01/03 12:41:27;;;;;;;13.50;3.08;;;12.10;99.90;;;;;;5044821;28;20028;-70